Weyauwega, WI

8:31 AM CST on December 26, 2014 (GMT -0600)
W9SBU | Change Station
CLOSE
Current Station
Personal Weather Station
Location: Weyauwega, WI
Elevation: 822 ft
Nearby Weather Stations

Elev 822 ft 44.32 °N, 88.93 °W | Updated 1 second ago

Fog
Fog
26.2 °F
Feels Like 26 °F
N
0.0
Wind Variable Wind from North
Gusts 0.0 mph

Today
High -- | Low -- °F
--% Chance of Precip.
Yesterday
High -- | Low -- °F
Precip. -- in
7:30 AM 4:22 PM
Waxing Crescent, 26% visible
Pressure 29.95 in
Visibility 0.2 miles
Clouds Overcast 100 ft
Windchill 26 °F
Dew Point 22 °F
Humidity 84%
Rainfall 0.00 in
Snow Depth Not available.
UV 0 out of 12
Pollen .10 out of 12
Air Quality Not available.
Flu Activity Not available.
METAR KPCZ 261415Z AUTO 00000KT M1/4SM FZFG OVC001 M02/M03 A2995 RMK AO2 T10251032

More Conditions Fewer Conditions

Pressure 29.95 in
Visibility 0.2 miles
Clouds Overcast 100 ft
Windchill 26 °F
Dew Point 22 °F
Humidity 84%
Rainfall 0.00 in
Snow Depth Not available.
UV 0 out of 12
Pollen .10 out of 12
Air Quality Not available.
Flu Activity Not available.
METAR KPCZ 261415Z AUTO 00000KT M1/4SM FZFG OVC001 M02/M03 A2995 RMK AO2 T10251032

More Conditions Fewer Conditions

10-Day Weather Forecast

Almanac

Astronomy

Dec. 26, 2014 Rise Set
Actual Time
Civil Twilight
Nautical Twilight
Astronomical Twilight
Moon
Length of Visible Light
Length of Day
Tomorrow will be .
, % of the Moon is Illuminated

Today's Extremes

State Highs State Lows

Community

WunderPhotos

Upload Photos

1,780,599 photos uploaded!

WunderBlogs® & News

Nearby

Air Quality

  Air Quality AQ Index Pollutant
Not available.

Snow Depth

Station Depth Elevation

Earthquake Activity

City Distance Mag. Time & Date
Minimum magnitude displayed is 2.5.

Coastal Water Temperatures

Place Temperature

Nearby Weather Stations